KMSO

Missoula International Airport

Missoula, Montana, USA
METAR KMSO 230053Z 32005KT 8SM CLR 12/01 A3002 RMK AO2 SLP178 T01170006
Observed Flight Rules
Oct-23 @ 00:53 UTC (44 minutes ago) Visual Flight Rules
Wind Visibility Clouds
320° at 5 knots 8 miles
  • Clear skies
Temperatures Readings
Current 12°C / 54°F
Dewpoint 1°C / 34°F
Humidity 47%
Altimeter 30.02" Hg
Pressure 1017.8 hPa
Elevation 975
METAR KMSO 230053Z 32005KT 8SM CLR 12/01 A3002 RMK AO2 SLP178 T01170006
Observed Flight Rules
Oct-23 @ 00:53 UTC
(44 minutes ago)
VFR
Wind Visibility
320° at 5 knots 8 miles
Clouds
  • Clear skies
Temperature Dewpoint
12°C / 54°F 1°C / 34°F
Humidity Altimeter Pressure
47% 30.02" Hg 1017.8 hPa